Time;durP1;ratioP1;P1;durP2;ratioP2;P2;SDS_P1;SDS_P2;PMS_P1;PMS_P2;Temp;Humidity;BMP_temperature;BMP_pressure;BME280_temperature;BME280_humidity;BME280_pressure;Samples;Min_cycle;Max_cycle;Signal;HPM_P1;HPM_P2
2022/01/29 00:02:23;;;;;;;15.10;8.82;;;5.10;99.90;;;;;;5039909;28;20206;-89
2022/01/29 00:04:50;;;;;;;12.65;7.50;;;5.40;99.90;;;;;;5041401;28;20211;-89
2022/01/29 00:07:17;;;;;;;17.83;9.52;;;5.30;99.90;;;;;;5040586;28;20253;-89
2022/01/29 00:09:45;;;;;;;15.85;9.70;;;5.20;99.90;;;;;;5041464;28;20235;-89
2022/01/29 00:12:12;;;;;;;12.75;7.47;;;4.90;99.90;;;;;;5051105;28;20298;-89
2022/01/29 00:14:39;;;;;;;15.35;8.05;;;5.30;99.90;;;;;;5044604;28;20211;-89
2022/01/29 00:17:07;;;;;;;13.55;9.07;;;5.30;99.90;;;;;;5045728;28;20370;-89
2022/01/29 00:19:38;;;;;;;17.30;9.60;;;5.30;99.90;;;;;;5046579;28;20202;-88
2022/01/29 00:22:05;;;;;;;19.88;9.00;;;5.30;99.90;;;;;;5045199;28;20253;-88
2022/01/29 00:24:32;;;;;;;11.70;8.55;;;5.10;99.90;;;;;;5050863;28;20210;-88
2022/01/29 00:27:02;;;;;;;11.82;8.20;;;5.40;99.90;;;;;;5055143;28;20241;-89
2022/01/29 00:29:30;;;;;;;13.82;9.38;;;5.10;99.90;;;;;;5054425;28;20217;-89
2022/01/29 00:31:57;;;;;;;15.45;10.35;;;5.50;99.90;;;;;;5048463;28;20237;-88
2022/01/29 00:34:25;;;;;;;12.20;8.75;;;5.10;99.90;;;;;;5046134;28;20265;-87
2022/01/29 00:36:52;;;;;;;13.48;7.93;;;5.40;99.90;;;;;;5047795;28;20683;-87
2022/01/29 00:39:19;;;;;;;16.35;8.45;;;5.40;99.90;;;;;;5045656;28;20203;-89
2022/01/29 00:41:46;;;;;;;16.45;8.63;;;5.40;99.90;;;;;;5044443;28;20771;-88
2022/01/29 00:44:13;;;;;;;11.77;7.85;;;5.60;99.90;;;;;;5045417;28;20245;-88
2022/01/29 00:46:41;;;;;;;14.18;8.05;;;5.60;99.90;;;;;;5046190;28;20298;-88
2022/01/29 00:49:08;;;;;;;12.10;8.27;;;5.50;99.90;;;;;;5044926;28;20230;-88
2022/01/29 00:51:37;;;;;;;12.25;7.90;;;5.60;99.90;;;;;;5046151;28;20235;-89
2022/01/29 00:54:04;;;;;;;14.82;8.18;;;5.40;99.90;;;;;;5051947;28;20206;-89
2022/01/29 00:56:31;;;;;;;10.25;6.95;;;5.30;99.90;;;;;;5044603;28;20538;-88
2022/01/29 00:58:58;;;;;;;12.23;7.72;;;5.10;99.90;;;;;;5043944;28;20643;-88
2022/01/29 01:01:26;;;;;;;12.30;7.85;;;5.50;99.90;;;;;;5045797;28;20284;-88
2022/01/29 01:03:53;;;;;;;10.35;7.10;;;5.20;99.90;;;;;;5044635;28;20202;-89
2022/01/29 01:06:20;;;;;;;16.90;7.93;;;5.30;99.90;;;;;;5045370;28;20230;-89
2022/01/29 01:08:48;;;;;;;14.05;8.43;;;5.20;99.90;;;;;;5049106;28;20273;-89
2022/01/29 01:11:15;;;;;;;13.55;9.05;;;5.20;99.90;;;;;;5052294;28;20231;-89
2022/01/29 01:13:42;;;;;;;11.88;7.90;;;4.80;99.90;;;;;;5045205;28;20231;-89
2022/01/29 01:16:09;;;;;;;12.57;8.05;;;5.50;99.90;;;;;;5046525;28;20235;-88
2022/01/29 01:18:35;;;;;;;11.48;7.35;;;5.30;99.90;;;;;;5043882;28;20286;-88
2022/01/29 01:21:02;;;;;;;11.35;6.97;;;5.30;99.90;;;;;;5043370;28;20330;-88
2022/01/29 01:23:29;;;;;;;9.93;6.90;;;5.30;99.90;;;;;;5042536;28;20297;-88
2022/01/29 01:25:58;;;;;;;10.27;6.80;;;5.50;99.90;;;;;;5044201;28;20203;-88
2022/01/29 01:28:25;;;;;;;11.13;6.75;;;5.30;99.90;;;;;;5056816;28;20234;-88
2022/01/29 01:30:52;;;;;;;11.35;7.00;;;5.60;99.90;;;;;;5044589;28;20238;-89
2022/01/29 01:33:18;;;;;;;17.60;7.65;;;5.40;99.90;;;;;;5044831;28;20234;-88
2022/01/29 01:35:49;;;;;;;10.52;7.00;;;5.40;99.90;;;;;;5056833;28;20199;-88
2022/01/29 01:38:20;;;;;;;11.90;7.03;;;5.00;99.90;;;;;;5056006;28;20191;-88
2022/01/29 01:40:52;;;;;;;8.65;5.55;;;5.50;99.90;;;;;;5054852;28;20253;-89
2022/01/29 01:43:20;;;;;;;11.52;6.30;;;5.30;99.90;;;;;;5052603;28;20195;-88
2022/01/29 01:45:47;;;;;;;10.70;6.15;;;5.70;99.90;;;;;;5056744;28;20237;-89
2022/01/29 01:48:14;;;;;;;8.80;5.90;;;5.50;99.90;;;;;;5045459;28;20210;-89
2022/01/29 01:50:41;;;;;;;7.90;4.65;;;5.90;99.90;;;;;;5043299;28;20230;-89
2022/01/29 01:53:08;;;;;;;11.02;6.47;;;5.90;99.90;;;;;;5042779;28;20333;-88
2022/01/29 01:55:35;;;;;;;12.55;8.60;;;5.60;99.90;;;;;;5042309;28;20210;-89
2022/01/29 01:58:02;;;;;;;12.23;8.32;;;5.60;99.90;;;;;;5043120;28;20211;-89
2022/01/29 02:00:31;;;;;;;8.40;6.43;;;5.50;99.90;;;;;;5042115;28;20313;-89
2022/01/29 02:02:58;;;;;;;11.45;7.72;;;5.30;99.90;;;;;;5042796;28;20234;-88
2022/01/29 02:05:26;;;;;;;10.20;6.40;;;5.00;99.90;;;;;;5043444;28;20213;-89
2022/01/29 02:07:53;;;;;;;10.95;6.70;;;5.40;99.90;;;;;;5050157;28;20195;-89
2022/01/29 02:10:21;;;;;;;11.15;7.20;;;5.40;99.90;;;;;;5044546;28;20289;-89
2022/01/29 02:12:49;;;;;;;9.10;6.50;;;5.40;99.90;;;;;;5043228;28;20297;-89
2022/01/29 02:15:17;;;;;;;9.68;6.13;;;5.50;99.90;;;;;;5041188;28;20717;-89
2022/01/29 02:17:46;;;;;;;10.40;6.40;;;5.60;99.90;;;;;;5040923;28;20218;-89
2022/01/29 02:20:13;;;;;;;10.13;6.30;;;5.40;99.90;;;;;;5041309;28;20227;-89
2022/01/29 02:22:43;;;;;;;8.13;5.75;;;5.30;99.90;;;;;;5041541;28;20195;-89
2022/01/29 02:25:31;;;;;;;8.57;6.20;;;5.60;99.90;;;;;;5041221;28;20210;-88
2022/01/29 02:28:00;;;;;;;10.18;6.50;;;5.50;99.90;;;;;;5045140;28;20187;-88
2022/01/29 02:30:29;;;;;;;11.63;6.00;;;5.70;99.90;;;;;;5051253;28;20246;-88
2022/01/29 02:32:57;;;;;;;9.30;5.55;;;5.60;99.90;;;;;;5043631;28;20232;-88
2022/01/29 02:35:24;;;;;;;13.77;6.47;;;5.40;99.90;;;;;;5054581;28;20226;-88
2022/01/29 02:37:53;;;;;;;10.15;6.10;;;5.50;99.90;;;;;;5055589;28;20226;-88
2022/01/29 02:40:21;;;;;;;11.20;7.07;;;5.50;99.90;;;;;;5056406;28;20261;-88
2022/01/29 02:42:49;;;;;;;9.57;6.38;;;5.40;99.90;;;;;;5051067;28;20206;-89
2022/01/29 02:45:16;;;;;;;8.75;6.50;;;5.30;99.90;;;;;;5049877;28;20221;-88
2022/01/29 02:47:42;;;;;;;10.25;6.25;;;5.20;99.90;;;;;;5053602;28;20214;-88
2022/01/29 02:50:09;;;;;;;10.30;6.30;;;5.00;99.90;;;;;;5046963;28;20293;-89
2022/01/29 02:52:36;;;;;;;10.02;6.30;;;4.80;99.90;;;;;;5042570;28;20249;-88
2022/01/29 02:55:06;;;;;;;10.20;5.65;;;4.80;99.90;;;;;;5043149;28;20206;-88
2022/01/29 02:57:33;;;;;;;9.93;5.97;;;5.10;99.90;;;;;;5043549;28;20207;-88
2022/01/29 03:00:01;;;;;;;11.73;5.60;;;5.10;99.90;;;;;;5042400;28;20313;-88
2022/01/29 03:02:28;;;;;;;10.00;6.05;;;5.10;99.90;;;;;;5042579;28;20199;-88
2022/01/29 03:04:56;;;;;;;10.35;6.50;;;4.60;99.90;;;;;;5048694;28;20209;-87
2022/01/29 03:07:24;;;;;;;11.60;6.35;;;5.10;99.90;;;;;;5047496;28;20203;-87
2022/01/29 03:09:51;;;;;;;10.18;5.78;;;5.00;99.90;;;;;;5048795;28;20683;-88
2022/01/29 03:12:19;;;;;;;8.85;6.80;;;5.00;99.90;;;;;;5047216;28;20233;-88
2022/01/29 03:14:46;;;;;;;17.60;7.15;;;5.20;99.90;;;;;;5047453;28;20278;-88
2022/01/29 03:17:13;;;;;;;12.77;5.80;;;5.10;99.90;;;;;;5051500;28;20217;-87
2022/01/29 03:19:40;;;;;;;12.50;6.47;;;5.20;99.90;;;;;;5055660;28;20295;-88
2022/01/29 03:22:07;;;;;;;11.75;5.53;;;5.20;99.90;;;;;;5049055;28;20225;-88
2022/01/29 03:24:34;;;;;;;8.20;5.75;;;5.10;99.90;;;;;;5051156;28;20203;-89
2022/01/29 03:27:01;;;;;;;10.48;5.93;;;5.20;99.90;;;;;;5048449;28;20285;-88
2022/01/29 03:29:29;;;;;;;8.18;5.28;;;5.20;99.90;;;;;;5054108;28;20266;-89
2022/01/29 03:31:56;;;;;;;10.35;5.35;;;4.80;99.90;;;;;;5049783;28;20206;-88
2022/01/29 03:34:23;;;;;;;7.90;5.60;;;5.50;99.90;;;;;;5057213;28;20203;-87
2022/01/29 03:36:50;;;;;;;9.20;4.97;;;5.00;99.90;;;;;;5047489;28;20277;-88
2022/01/29 03:39:17;;;;;;;9.10;5.85;;;5.50;99.90;;;;;;5042110;28;20211;-88
2022/01/29 03:41:43;;;;;;;9.65;5.20;;;5.30;99.90;;;;;;5043890;28;20231;-89
2022/01/29 03:44:10;;;;;;;7.80;5.25;;;5.40;99.90;;;;;;5048907;28;20207;-88
2022/01/29 03:46:39;;;;;;;8.65;5.38;;;5.50;99.90;;;;;;5046534;28;20230;-89
2022/01/29 03:49:05;;;;;;;11.32;5.20;;;5.50;99.90;;;;;;5046319;28;20297;-88
2022/01/29 03:51:32;;;;;;;9.20;5.60;;;5.40;99.90;;;;;;5047940;28;20226;-89
2022/01/29 03:53:59;;;;;;;7.07;5.32;;;5.60;99.90;;;;;;5049294;28;20245;-88
2022/01/29 03:56:26;;;;;;;10.50;5.35;;;5.40;99.90;;;;;;5047749;28;20237;-89
2022/01/29 03:58:53;;;;;;;9.52;6.18;;;5.50;99.90;;;;;;5045914;28;20289;-88
2022/01/29 04:01:20;;;;;;;9.75;5.40;;;5.50;99.90;;;;;;5046179;28;20344;-88
2022/01/29 04:03:49;;;;;;;10.15;5.40;;;5.40;99.90;;;;;;5055417;28;20217;-87
2022/01/29 04:06:15;;;;;;;13.05;6.05;;;5.40;99.90;;;;;;5045740;28;20238;-88
2022/01/29 04:08:43;;;;;;;7.60;5.10;;;5.40;99.90;;;;;;5048389;28;20217;-88
2022/01/29 04:11:12;;;;;;;8.40;5.13;;;5.40;99.90;;;;;;5052957;28;20294;-88
2022/01/29 04:13:42;;;;;;;8.52;4.57;;;5.50;99.90;;;;;;5052664;28;20239;-88
2022/01/29 04:16:09;;;;;;;5.82;4.30;;;5.50;99.90;;;;;;5052385;28;20203;-88
2022/01/29 04:18:36;;;;;;;7.32;4.50;;;5.40;99.90;;;;;;5045164;28;20214;-88
2022/01/29 04:21:05;;;;;;;7.60;4.45;;;5.30;99.90;;;;;;5094229;22;20222;-85
2022/01/29 04:23:32;;;;;;;8.18;4.53;;;5.50;99.90;;;;;;5067341;28;20224;-86
2022/01/29 04:26:01;;;;;;;6.82;3.47;;;5.50;99.90;;;;;;5065486;28;20202;-88
2022/01/29 04:28:31;;;;;;;5.80;3.63;;;5.50;99.90;;;;;;5062825;28;20210;-88
2022/01/29 04:31:02;;;;;;;6.65;4.50;;;5.50;99.90;;;;;;5055927;28;20222;-88
2022/01/29 04:33:29;;;;;;;6.97;4.10;;;5.50;99.90;;;;;;5042856;28;20312;-88
2022/01/29 04:35:57;;;;;;;7.25;3.63;;;5.50;99.90;;;;;;5042730;28;20220;-88
2022/01/29 04:38:27;;;;;;;5.95;4.00;;;5.50;99.90;;;;;;5049259;28;20238;-86
2022/01/29 04:40:54;;;;;;;6.40;3.83;;;5.40;99.90;;;;;;5043324;28;20229;-88
2022/01/29 04:43:24;;;;;;;7.32;3.80;;;5.40;99.90;;;;;;5041485;28;20214;-88
2022/01/29 04:45:51;;;;;;;7.88;4.32;;;4.90;99.90;;;;;;5042008;28;20199;-88
2022/01/29 04:48:18;;;;;;;7.13;4.18;;;5.40;99.90;;;;;;5049874;28;20215;-88
2022/01/29 04:50:48;;;;;;;6.50;4.13;;;5.00;99.90;;;;;;5051183;28;20246;-88
2022/01/29 04:53:21;;;;;;;6.47;3.42;;;5.40;99.90;;;;;;5050604;28;20226;-87
2022/01/29 04:55:49;;;;;;;6.95;4.18;;;5.40;99.90;;;;;;5044860;28;20237;-87
2022/01/29 04:58:17;;;;;;;6.85;4.32;;;5.40;99.90;;;;;;5039979;28;20221;-88
2022/01/29 05:00:45;;;;;;;5.63;3.75;;;5.40;99.90;;;;;;5040484;28;20314;-87
2022/01/29 05:03:14;;;;;;;10.18;3.78;;;5.60;99.90;;;;;;5040664;28;20211;-88
2022/01/29 05:05:42;;;;;;;6.32;3.15;;;5.80;99.90;;;;;;5040269;28;20207;-88
2022/01/29 05:08:11;;;;;;;8.50;3.85;;;5.70;99.90;;;;;;5040435;28;20207;-88
2022/01/29 05:10:39;;;;;;;5.75;3.60;;;5.80;99.90;;;;;;5052765;28;20225;-88
2022/01/29 05:13:10;;;;;;;5.65;3.35;;;5.90;99.90;;;;;;5047858;28;20261;-88
2022/01/29 05:15:41;;;;;;;5.35;2.50;;;5.80;99.90;;;;;;5041925;28;20192;-88
2022/01/29 05:29:09;;;;;;;10.98;6.13;;;5.20;99.90;;;;;;5043092;28;20189;-88
2022/01/29 05:31:36;;;;;;;15.23;7.55;;;4.70;99.90;;;;;;5040959;28;20222;-88
2022/01/29 05:34:03;;;;;;;11.18;7.10;;;4.80;99.90;;;;;;5041040;28;20297;-86
2022/01/29 05:36:30;;;;;;;10.18;6.90;;;4.50;99.90;;;;;;5040909;28;20207;-86
2022/01/29 05:38:57;;;;;;;11.80;7.70;;;4.80;99.90;;;;;;5042925;28;20209;-86
2022/01/29 05:41:25;;;;;;;12.95;7.97;;;4.70;99.90;;;;;;5057047;28;20249;-86
2022/01/29 05:43:52;;;;;;;13.27;7.30;;;4.40;99.90;;;;;;5049784;28;20256;-88
2022/01/29 05:46:21;;;;;;;13.02;7.65;;;4.40;99.90;;;;;;5041461;28;20688;-87
2022/01/29 05:48:48;;;;;;;11.70;7.43;;;4.70;99.90;;;;;;5040738;28;20206;-88
2022/01/29 05:51:15;;;;;;;10.60;7.28;;;4.70;99.90;;;;;;5040843;28;20264;-86
2022/01/29 05:53:42;;;;;;;11.68;7.95;;;5.20;99.90;;;;;;5041435;28;20664;-87
2022/01/29 05:56:09;;;;;;;11.15;7.90;;;4.60;99.90;;;;;;5041008;28;20590;-87
2022/01/29 05:58:36;;;;;;;13.90;8.77;;;4.90;99.90;;;;;;5040246;28;20238;-87
2022/01/29 06:01:03;;;;;;;14.10;8.68;;;4.80;99.90;;;;;;5043510;28;20227;-88
2022/01/29 06:03:32;;;;;;;14.30;8.55;;;4.60;99.90;;;;;;5044588;28;20203;-87
2022/01/29 06:05:59;;;;;;;14.57;8.43;;;4.50;99.90;;;;;;5040658;28;20654;-89
2022/01/29 06:08:26;;;;;;;13.68;8.30;;;4.90;99.90;;;;;;5041693;28;20211;-87
2022/01/29 06:10:53;;;;;;;14.32;8.27;;;4.60;99.90;;;;;;5044060;28;20249;-88
2022/01/29 06:13:20;;;;;;;13.93;8.18;;;4.80;99.90;;;;;;5050213;28;20218;-88
2022/01/29 06:15:52;;;;;;;12.40;7.75;;;4.40;99.90;;;;;;5042816;28;20218;-89
2022/01/29 06:18:22;;;;;;;12.35;7.50;;;4.70;99.90;;;;;;5047280;28;20202;-88
2022/01/29 06:20:53;;;;;;;12.68;7.68;;;5.10;99.90;;;;;;5044465;28;20234;-86
2022/01/29 06:23:29;;;;;;;11.25;7.20;;;5.20;99.90;;;;;;5041649;28;20206;-87
2022/01/29 06:25:56;;;;;;;10.60;6.55;;;5.20;99.90;;;;;;5044365;28;20195;-88
2022/01/29 06:28:23;;;;;;;14.05;7.88;;;4.90;99.90;;;;;;5043906;28;20206;-89
2022/01/29 06:30:53;;;;;;;12.10;7.85;;;5.10;99.90;;;;;;5047557;28;20258;-87
2022/01/29 06:33:20;;;;;;;12.23;7.70;;;5.10;99.90;;;;;;5040924;28;20236;-86
2022/01/29 06:35:47;;;;;;;12.30;8.02;;;5.40;99.90;;;;;;5043921;28;20306;-85
2022/01/29 06:38:17;;;;;;;12.90;7.97;;;5.00;99.90;;;;;;5040478;28;20207;-86
2022/01/29 06:40:44;;;;;;;11.38;7.00;;;5.00;99.90;;;;;;5038744;28;20219;-87
2022/01/29 06:43:12;;;;;;;11.55;7.07;;;5.30;99.90;;;;;;5038773;28;20237;-86
2022/01/29 06:45:41;;;;;;;14.48;8.13;;;4.60;99.90;;;;;;5040967;28;20214;-87
2022/01/29 06:48:09;;;;;;;16.35;8.38;;;4.50;99.90;;;;;;5046064;28;20227;-86
2022/01/29 06:50:37;;;;;;;12.30;7.40;;;4.80;99.90;;;;;;5036964;28;20253;-86
2022/01/29 06:53:05;;;;;;;15.23;7.22;;;4.90;99.90;;;;;;5038698;28;20206;-86
2022/01/29 06:55:34;;;;;;;11.68;6.55;;;5.20;99.90;;;;;;5040076;28;20210;-86
2022/01/29 06:58:01;;;;;;;11.05;7.22;;;5.30;99.90;;;;;;5036935;28;20739;-86
2022/01/29 07:00:28;;;;;;;10.20;7.13;;;5.30;99.90;;;;;;5038393;28;20313;-87
2022/01/29 07:02:55;;;;;;;12.07;7.95;;;5.30;99.90;;;;;;5056029;28;20224;-88
2022/01/29 07:05:22;;;;;;;13.85;8.77;;;5.10;99.90;;;;;;5044938;28;20203;-87
2022/01/29 07:07:49;;;;;;;14.52;8.00;;;4.70;99.90;;;;;;5044191;28;20230;-85
2022/01/29 07:10:18;;;;;;;14.02;6.88;;;4.70;99.90;;;;;;5040656;28;20337;-86
2022/01/29 07:12:46;;;;;;;13.95;8.18;;;4.90;99.90;;;;;;5040257;28;20269;-86
2022/01/29 07:15:16;;;;;;;12.00;7.53;;;4.90;99.90;;;;;;5040039;28;20245;-88
2022/01/29 07:17:43;;;;;;;12.75;8.25;;;4.80;99.90;;;;;;5042504;28;20272;-86
2022/01/29 07:20:11;;;;;;;10.57;7.30;;;4.90;99.90;;;;;;5040885;28;20711;-87
2022/01/29 07:22:39;;;;;;;12.90;8.50;;;4.90;99.90;;;;;;5039240;28;20241;-86
2022/01/29 07:25:07;;;;;;;9.52;6.60;;;4.90;99.90;;;;;;5040544;28;20236;-87
2022/01/29 07:27:34;;;;;;;7.70;5.68;;;5.10;99.90;;;;;;5043570;28;20216;-86
2022/01/29 07:30:03;;;;;;;11.23;6.28;;;5.00;99.90;;;;;;5048677;28;20230;-86
2022/01/29 07:32:31;;;;;;;8.57;5.75;;;5.10;99.90;;;;;;5044744;28;20207;-87
2022/01/29 07:34:58;;;;;;;10.23;6.20;;;5.10;99.90;;;;;;5041357;28;20210;-87
2022/01/29 07:37:25;;;;;;;14.27;5.70;;;4.80;99.90;;;;;;5040272;28;20260;-87
2022/01/29 07:39:52;;;;;;;7.75;5.00;;;5.00;99.90;;;;;;5039973;28;20615;-89
2022/01/29 07:42:19;;;;;;;10.15;5.10;;;5.40;99.90;;;;;;5047759;28;20227;-87
2022/01/29 07:44:47;;;;;;;8.60;5.05;;;5.10;99.90;;;;;;5040533;28;20203;-87
2022/01/29 07:47:15;;;;;;;10.10;4.68;;;5.40;99.90;;;;;;5040613;28;20210;-87
2022/01/29 07:49:42;;;;;;;7.40;4.43;;;5.50;99.90;;;;;;5039744;28;20199;-88
2022/01/29 07:52:09;;;;;;;9.13;4.97;;;5.20;99.90;;;;;;5042072;28;20265;-87
2022/01/29 07:54:36;;;;;;;6.65;4.45;;;5.80;99.90;;;;;;5042558;28;20202;-87
2022/01/29 07:57:04;;;;;;;5.65;3.63;;;5.80;99.90;;;;;;5041265;28;20207;-88
2022/01/29 07:59:31;;;;;;;13.27;4.47;;;5.80;99.90;;;;;;5041084;28;20222;-87
2022/01/29 08:01:58;;;;;;;8.70;4.28;;;5.80;99.90;;;;;;5046380;28;20223;-87
2022/01/29 08:04:26;;;;;;;9.48;4.50;;;5.40;99.90;;;;;;5044885;28;20238;-87
2022/01/29 08:06:53;;;;;;;6.50;4.20;;;5.80;99.90;;;;;;5046745;28;20211;-87
2022/01/29 08:09:20;;;;;;;5.85;4.32;;;5.80;99.90;;;;;;5040592;28;20257;-87
2022/01/29 08:11:48;;;;;;;8.77;3.85;;;5.80;99.90;;;;;;5042645;28;20230;-87
2022/01/29 08:14:17;;;;;;;7.18;3.97;;;5.80;99.90;;;;;;5039485;28;20245;-86
2022/01/29 08:16:44;;;;;;;6.47;3.75;;;5.80;99.90;;;;;;5043115;28;20209;-86
2022/01/29 08:19:11;;;;;;;7.15;3.90;;;5.90;99.90;;;;;;5041960;28;20215;-88
2022/01/29 08:21:40;;;;;;;7.88;4.28;;;5.90;99.90;;;;;;5043932;28;20234;-85
2022/01/29 08:24:07;;;;;;;6.10;3.80;;;5.90;99.90;;;;;;5053382;28;20251;-86
2022/01/29 08:26:34;;;;;;;7.13;3.63;;;5.80;99.90;;;;;;5056530;28;20238;-85
2022/01/29 08:29:01;;;;;;;8.10;3.70;;;6.00;99.90;;;;;;5050240;28;20222;-87
2022/01/29 08:31:28;;;;;;;6.68;3.55;;;5.90;99.90;;;;;;5045885;28;20279;-86
2022/01/29 08:33:55;;;;;;;8.18;3.35;;;6.00;99.90;;;;;;5051432;28;20211;-88
2022/01/29 08:36:23;;;;;;;8.32;3.30;;;6.10;99.90;;;;;;5043460;28;20262;-87
2022/01/29 08:38:51;;;;;;;5.72;3.35;;;6.20;99.90;;;;;;5041140;28;20205;-87
2022/01/29 08:41:18;;;;;;;5.45;3.42;;;6.10;99.90;;;;;;5041839;28;20659;-86
2022/01/29 08:43:48;;;;;;;8.43;3.85;;;6.20;99.90;;;;;;5045108;28;20237;-87
2022/01/29 08:46:15;;;;;;;6.35;3.33;;;6.40;99.90;;;;;;5046538;28;20245;-86
2022/01/29 08:48:42;;;;;;;6.05;3.03;;;6.60;99.90;;;;;;5041262;28;20256;-86
2022/01/29 08:51:10;;;;;;;6.70;3.28;;;6.60;99.90;;;;;;5041798;28;20234;-87
2022/01/29 08:53:37;;;;;;;6.68;3.17;;;6.60;99.90;;;;;;5049165;28;20199;-86
2022/01/29 08:56:06;;;;;;;5.85;3.28;;;6.60;99.90;;;;;;5048674;28;20222;-87
2022/01/29 08:58:37;;;;;;;5.78;3.35;;;6.60;99.90;;;;;;5043506;28;20249;-88
2022/01/29 09:01:07;;;;;;;8.10;4.10;;;6.60;99.90;;;;;;5043399;28;20231;-87
2022/01/29 09:03:35;;;;;;;8.68;4.00;;;6.60;99.90;;;;;;5044633;28;20191;-86
2022/01/29 09:06:03;;;;;;;8.65;4.28;;;6.70;99.90;;;;;;5043425;28;20277;-88
2022/01/29 09:08:30;;;;;;;7.32;4.22;;;6.30;99.90;;;;;;5044189;28;20676;-88
2022/01/29 09:10:58;;;;;;;7.30;4.10;;;6.80;99.90;;;;;;5044594;28;20241;-88
2022/01/29 09:13:27;;;;;;;9.10;4.57;;;6.80;99.90;;;;;;5043741;28;20198;-88
2022/01/29 09:15:56;;;;;;;7.65;4.05;;;6.50;99.90;;;;;;5042672;28;20213;-88
2022/01/29 09:18:25;;;;;;;6.95;4.15;;;7.00;99.90;;;;;;5044131;28;20205;-88
2022/01/29 09:20:52;;;;;;;6.97;3.55;;;7.00;99.90;;;;;;5043324;28;20227;-88
2022/01/29 09:23:19;;;;;;;6.53;3.90;;;6.60;99.90;;;;;;5044367;28;20261;-85
2022/01/29 09:25:47;;;;;;;6.80;3.75;;;7.10;99.90;;;;;;5051666;28;20664;-86
2022/01/29 09:28:15;;;;;;;7.00;4.22;;;6.80;99.90;;;;;;5044754;28;20199;-87
2022/01/29 09:30:46;;;;;;;7.72;4.40;;;7.00;99.90;;;;;;5050737;28;20249;-88
2022/01/29 09:33:13;;;;;;;8.27;4.60;;;6.90;99.90;;;;;;5045432;28;20214;-87
2022/01/29 09:35:41;;;;;;;6.57;4.03;;;7.10;99.90;;;;;;5045166;28;20202;-86
2022/01/29 09:38:10;;;;;;;7.20;4.30;;;7.00;99.90;;;;;;5048236;28;20274;-86
2022/01/29 09:40:38;;;;;;;6.18;4.20;;;6.90;99.90;;;;;;5046158;28;20324;-87
2022/01/29 09:43:12;;;;;;;6.65;3.70;;;6.80;99.90;;;;;;5045057;28;20225;-87
2022/01/29 09:45:40;;;;;;;6.55;3.95;;;6.80;99.90;;;;;;5046626;28;20248;-87
2022/01/29 09:48:08;;;;;;;8.98;4.60;;;7.30;99.90;;;;;;5043815;28;20202;-89
2022/01/29 09:50:41;;;;;;;8.35;4.47;;;7.40;99.90;;;;;;5044098;28;20227;-89
2022/01/29 09:53:08;;;;;;;9.35;3.80;;;7.60;99.90;;;;;;5043908;28;20620;-87
2022/01/29 09:55:37;;;;;;;9.32;4.20;;;7.70;99.90;;;;;;5049919;28;20193;-87
2022/01/29 09:58:04;;;;;;;8.20;4.30;;;7.70;99.90;;;;;;5057980;28;20230;-88
2022/01/29 10:00:33;;;;;;;7.47;4.65;;;7.60;99.90;;;;;;5048006;28;20273;-88
2022/01/29 10:03:21;;;;;;;7.13;4.50;;;7.60;99.90;;;;;;5051045;28;20302;-87
2022/01/29 10:05:50;;;;;;;8.48;5.10;;;7.70;99.90;;;;;;5045243;28;20210;-87
2022/01/29 10:08:22;;;;;;;6.90;3.80;;;7.90;99.90;;;;;;5046457;28;20207;-88
2022/01/29 10:10:57;;;;;;;7.50;4.03;;;7.90;99.90;;;;;;5047856;28;20223;-88
2022/01/29 10:13:32;;;;;;;7.47;3.80;;;8.00;99.90;;;;;;5046912;28;20202;-87
2022/01/29 10:16:11;;;;;;;8.65;4.25;;;8.00;99.90;;;;;;5048099;28;20270;-88
2022/01/29 10:18:40;;;;;;;7.30;4.38;;;8.10;99.90;;;;;;5048600;28;20352;-87
2022/01/29 10:21:16;;;;;;;9.20;3.80;;;7.70;99.90;;;;;;5065272;22;20256;-87
2022/01/29 10:23:51;;;;;;;8.43;3.95;;;7.80;99.90;;;;;;5061774;28;20190;-88
2022/01/29 10:26:28;;;;;;;7.28;4.00;;;8.10;99.90;;;;;;5065288;28;20252;-87
2022/01/29 10:29:06;;;;;;;10.45;5.10;;;8.10;99.90;;;;;;5070121;28;20220;-88
2022/01/29 10:31:45;;;;;;;6.30;4.20;;;8.10;99.90;;;;;;5059792;28;20230;-87
2022/01/29 10:34:39;;;;;;;6.90;4.00;;;8.10;99.90;;;;;;5044082;28;20222;-87
2022/01/29 10:37:15;;;;;;;6.20;4.10;;;8.10;99.90;;;;;;5042211;28;20207;-88
2022/01/29 10:39:45;;;;;;;7.22;4.72;;;8.10;99.90;;;;;;5045665;28;20215;-87
2022/01/29 10:42:17;;;;;;;8.73;4.82;;;8.10;99.90;;;;;;5046780;28;20295;-87
2022/01/29 10:44:45;;;;;;;7.78;3.60;;;8.30;99.90;;;;;;5045502;28;20252;-87
2022/01/29 10:47:25;;;;;;;6.60;3.90;;;8.40;99.90;;;;;;5055837;28;20344;-87
2022/01/29 10:49:56;;;;;;;7.30;3.70;;;8.60;99.90;;;;;;5055409;28;20251;-86
2022/01/29 10:52:39;;;;;;;;;;;;;;;;;;;;;
2022/01/29 10:55:12;;;;;;;7.72;4.50;;;8.70;99.90;;;;;;5055657;28;20179;-87
2022/01/29 10:57:44;;;;;;;7.10;3.97;;;8.70;99.90;;;;;;5044515;28;20199;-87
2022/01/29 11:00:21;;;;;;;8.45;4.57;;;8.70;99.90;;;;;;5043173;28;20183;-86
2022/01/29 11:02:52;;;;;;;6.82;3.25;;;8.80;99.90;;;;;;5041570;28;20207;-87
2022/01/29 11:05:27;;;;;;;6.15;3.90;;;8.80;99.90;;;;;;5040761;28;20214;-87
2022/01/29 11:08:03;;;;;;;5.95;3.45;;;8.90;99.90;;;;;;5041406;28;20194;-87
2022/01/29 11:10:34;;;;;;;5.20;2.63;;;9.00;99.90;;;;;;5040511;28;20194;-87
2022/01/29 11:13:06;;;;;;;5.38;2.60;;;8.90;99.90;;;;;;5040078;28;20277;-87
2022/01/29 11:15:46;;;;;;;5.28;2.65;;;9.00;99.90;;;;;;5040000;28;20566;-87
2022/01/29 11:18:14;;;;;;;5.30;2.33;;;9.00;99.90;;;;;;5043137;28;20206;-87
2022/01/29 11:20:50;;;;;;;4.97;2.75;;;9.00;99.90;;;;;;5040734;28;20228;-87
2022/01/29 11:23:30;;;;;;;6.60;2.67;;;9.00;99.90;;;;;;5042050;28;20267;-87
2022/01/29 11:29:17;;;;;;;8.77;2.70;;;8.90;99.90;;;;;;5043200;28;20322;-87
2022/01/29 11:32:19;;;;;;;7.45;3.10;;;8.90;99.90;;;;;;5014865;28;20326;-87
2022/01/29 11:42:17;;;;;;;4.68;2.33;;;8.90;99.90;;;;;;5016422;28;20682;-86
2022/01/29 11:45:44;;;;;;;4.60;2.30;;;8.90;99.90;;;;;;5014612;28;20286;-86
2022/01/29 11:52:00;;;;;;;4.38;2.10;;;8.80;99.90;;;;;;4948289;29;20238;-86
2022/01/29 11:54:57;;;;;;;5.20;2.45;;;8.90;99.90;;;;;;4978531;28;20193;-87
2022/01/29 11:57:43;;;;;;;5.45;2.90;;;8.90;99.90;;;;;;5035680;28;20234;-87
2022/01/29 12:04:09;;;;;;;6.10;2.40;;;8.90;99.90;;;;;;5038913;28;20275;-87
2022/01/29 12:06:57;;;;;;;4.22;2.17;;;8.70;99.90;;;;;;5034381;28;20218;-87
2022/01/29 12:09:33;;;;;;;5.28;2.33;;;8.60;99.90;;;;;;5048576;28;20562;-86
2022/01/29 12:12:24;;;;;;;4.00;1.98;;;8.80;99.90;;;;;;5043213;28;20222;-87
2022/01/29 12:15:41;;;;;;;6.20;2.95;;;8.90;99.90;;;;;;5050484;28;20253;-87
2022/01/29 12:24:26;;;;;;;4.32;2.20;;;9.00;99.90;;;;;;5086387;28;20213;-88
2022/01/29 12:33:16;;;;;;;6.25;2.13;;;8.70;99.90;;;;;;5040579;28;20234;-87
2022/01/29 12:36:06;;;;;;;5.20;2.72;;;8.80;99.90;;;;;;5070455;28;20217;-86
2022/01/29 12:39:08;;;;;;;5.35;1.98;;;8.80;99.90;;;;;;5067422;28;20209;-87
2022/01/29 12:42:28;;;;;;;6.15;3.35;;;9.00;99.90;;;;;;5047235;28;20222;-88
2022/01/29 12:45:26;;;;;;;5.10;2.10;;;9.00;99.90;;;;;;4970128;28;20243;-88
2022/01/29 12:48:37;;;;;;;5.85;2.38;;;9.00;99.90;;;;;;5065534;28;20231;-88
2022/01/29 12:51:15;;;;;;;5.63;2.10;;;8.80;99.90;;;;;;5068572;28;20573;-88
2022/01/29 12:53:45;;;;;;;4.10;2.13;;;8.90;99.90;;;;;;5073408;28;20220;-88
2022/01/29 12:56:13;;;;;;;5.50;2.30;;;8.90;99.90;;;;;;5070933;28;20437;-87
2022/01/29 12:58:47;;;;;;;5.97;2.87;;;8.80;99.90;;;;;;5075302;28;20206;-87
2022/01/29 13:01:47;;;;;;;4.55;2.15;;;8.90;99.90;;;;;;5076633;28;20460;-87
2022/01/29 13:04:17;;;;;;;4.30;2.35;;;8.90;99.90;;;;;;5073226;28;20298;-86
2022/01/29 13:06:46;;;;;;;5.50;2.58;;;8.90;99.90;;;;;;5077173;28;20250;-87
2022/01/29 13:09:26;;;;;;;5.10;2.55;;;8.70;99.90;;;;;;5076051;28;20201;-88
2022/01/29 13:12:00;;;;;;;6.35;2.50;;;8.70;99.90;;;;;;5064245;28;20239;-87
2022/01/29 13:14:35;;;;;;;5.00;2.50;;;8.70;99.90;;;;;;5071136;28;20191;-87
2022/01/29 13:17:19;;;;;;;4.88;2.20;;;8.70;99.90;;;;;;5068816;28;20236;-86
2022/01/29 13:19:51;;;;;;;5.05;2.10;;;8.70;99.90;;;;;;5067731;28;20666;-87
2022/01/29 13:25:52;;;;;;;4.40;2.20;;;8.60;99.90;;;;;;5009565;28;20207;-88
2022/01/29 13:28:38;;;;;;;4.78;2.15;;;8.60;99.90;;;;;;5012224;28;20196;-87
2022/01/29 13:31:28;;;;;;;4.40;2.20;;;8.60;99.90;;;;;;5071892;28;20224;-87
2022/01/29 13:34:04;;;;;;;6.45;2.42;;;8.60;99.90;;;;;;5076502;28;20285;-87
2022/01/29 13:36:48;;;;;;;5.30;2.78;;;8.60;99.90;;;;;;5077028;28;20248;-87
2022/01/29 13:39:49;;;;;;;4.75;2.45;;;8.50;99.90;;;;;;5075187;28;20184;-87
2022/01/29 13:42:45;;;;;;;6.65;2.65;;;8.40;99.90;;;;;;5077288;28;20252;-87
2022/01/29 13:45:20;;;;;;;5.20;2.28;;;8.30;99.90;;;;;;5077527;28;20255;-87
2022/01/29 13:48:13;;;;;;;7.35;3.05;;;8.40;99.90;;;;;;5076713;28;20218;-88
2022/01/29 13:50:46;;;;;;;5.53;2.47;;;8.40;99.90;;;;;;5071688;28;20218;-88
2022/01/29 13:53:43;;;;;;;4.88;2.20;;;8.40;99.90;;;;;;5066049;28;20206;-88
2022/01/29 13:56:15;;;;;;;4.70;2.53;;;8.50;99.90;;;;;;5062872;28;20264;-86
2022/01/29 13:58:53;;;;;;;5.45;2.65;;;8.40;99.90;;;;;;5063219;28;20512;-87